Penang International Airport
WMKP : now visible

Airfield :











YOU CAN JOIN US ON...

 
LOGIN :

Register | Disclaimer

   EN    FR    IT 

 









Legend :    VFR   Marginal VFR   IFR   Intensive IFR   Very Intensive IFR
Visi :
Ceiling :
>= 8 km
>= 3000ft
5 to 8 km
1000 to 3000 ft
1500m to 5 km
500 to 1000 ft
800 to 1500m
200 to 500 ft
< 800m
< 200 ft
Symbols :   Thunderstorms  Fog  Heavy snow  Heavy precipitations  Wind > 20 kt






- Airport Elevation : 11 ft
- IATA code : PEN


WMKP - Penang International

CURRENT METAR :
  • 121800Z 04007KT 010V070 8000 FEW025 27/22 Q1010 NOSIG

EXPIRED METARs :
  • 121730Z 04008KT 350V070 8000 FEW025 27/22 Q1011 NOSIG
  • 121700Z 03008KT 350V060 8000 FEW025 27/22 Q1011 NOSIG
  • 121630Z 03006KT 360V070 8000 FEW025 27/23 Q1011 NOSIG
  • 121600Z 03004KT 8000 FEW025 27/24 Q1011 NOSIG
  • 121530Z 35003KT 310V020 8000 FEW025 28/24 Q1011 NOSIG

TAF TAF WMKP
Valid from the 12 at 18:00 until the 13 at 18:00 UTC


121700Z 1218/1318 03005KT 8000 FEW025
BECMG 1304/1306 24008KT 9999 FEW020
BECMG 1312/1314 03005KT FEW025



MET'MAP, your aeronautical weather chart ! - Copyright ORBIFLY December 2007 - Disclaimer

ORBIFLY MET'MAP TEAM :

Programming & Development : Alexandra Zaïnal
Concept & original design : Baudouin d'Aumeries
Assistance for programming : Marc-Olivier Méhu
Technical & hardware support : Manuel Goepfert

Contact : metmap@orbifly.com




SOURCES & CREDITS :

   NOAA       Earth
Advisory